sensor_id;sensor_type;location;lat;lon;timestamp;P1;durP1;ratioP1;P2;durP2;ratioP2
23146;SDS011;11742;53.532;-1.478;2022-12-07T00:01:41;2.13;;;1.13;;
23146;SDS011;11742;53.532;-1.478;2022-12-07T00:04:15;1.70;;;1.00;;
23146;SDS011;11742;53.532;-1.478;2022-12-07T00:06:45;3.47;;;0.95;;
23146;SDS011;11742;53.532;-1.478;2022-12-07T00:09:16;3.30;;;1.02;;
23146;SDS011;11742;53.532;-1.478;2022-12-07T00:11:43;3.63;;;1.20;;
23146;SDS011;11742;53.532;-1.478;2022-12-07T00:14:11;1.77;;;0.95;;
23146;SDS011;11742;53.532;-1.478;2022-12-07T00:16:41;3.22;;;1.10;;
23146;SDS011;11742;53.532;-1.478;2022-12-07T00:19:16;2.05;;;1.00;;
23146;SDS011;11742;53.532;-1.478;2022-12-07T00:21:45;2.78;;;1.23;;
23146;SDS011;11742;53.532;-1.478;2022-12-07T00:24:12;3.78;;;1.13;;
23146;SDS011;11742;53.532;-1.478;2022-12-07T00:26:39;3.78;;;1.98;;
23146;SDS011;11742;53.532;-1.478;2022-12-07T00:29:16;1.63;;;0.90;;
23146;SDS011;11742;53.532;-1.478;2022-12-07T00:31:44;1.83;;;0.90;;
23146;SDS011;11742;53.532;-1.478;2022-12-07T00:34:24;2.22;;;0.82;;
23146;SDS011;11742;53.532;-1.478;2022-12-07T00:36:55;1.33;;;1.02;;
23146;SDS011;11742;53.532;-1.478;2022-12-07T00:39:21;3.13;;;0.80;;
23146;SDS011;11742;53.532;-1.478;2022-12-07T00:41:47;2.75;;;0.80;;
23146;SDS011;11742;53.532;-1.478;2022-12-07T00:44:13;2.97;;;1.05;;
23146;SDS011;11742;53.532;-1.478;2022-12-07T00:46:42;1.92;;;0.90;;
23146;SDS011;11742;53.532;-1.478;2022-12-07T00:49:16;2.33;;;0.98;;
23146;SDS011;11742;53.532;-1.478;2022-12-07T00:51:42;1.10;;;0.70;;
23146;SDS011;11742;53.532;-1.478;2022-12-07T00:54:20;3.88;;;1.00;;
23146;SDS011;11742;53.532;-1.478;2022-12-07T00:56:46;4.95;;;0.85;;
23146;SDS011;11742;53.532;-1.478;2022-12-07T00:59:12;3.25;;;0.95;;
23146;SDS011;11742;53.532;-1.478;2022-12-07T01:01:41;2.08;;;0.77;;
23146;SDS011;11742;53.532;-1.478;2022-12-07T01:04:10;1.35;;;0.82;;
23146;SDS011;11742;53.532;-1.478;2022-12-07T01:06:36;0.75;;;0.63;;
23146;SDS011;11742;53.532;-1.478;2022-12-07T01:09:04;3.53;;;1.00;;
23146;SDS011;11742;53.532;-1.478;2022-12-07T01:11:31;1.33;;;0.82;;
23146;SDS011;11742;53.532;-1.478;2022-12-07T01:14:03;2.33;;;1.02;;
23146;SDS011;11742;53.532;-1.478;2022-12-07T01:16:34;1.92;;;0.85;;
23146;SDS011;11742;53.532;-1.478;2022-12-07T01:19:00;3.95;;;1.02;;
23146;SDS011;11742;53.532;-1.478;2022-12-07T01:21:33;2.85;;;0.75;;
23146;SDS011;11742;53.532;-1.478;2022-12-07T01:24:01;2.60;;;0.93;;
23146;SDS011;11742;53.532;-1.478;2022-12-07T01:26:27;1.92;;;0.70;;
23146;SDS011;11742;53.532;-1.478;2022-12-07T01:28:59;1.65;;;0.60;;
23146;SDS011;11742;53.532;-1.478;2022-12-07T01:31:26;2.55;;;1.15;;
23146;SDS011;11742;53.532;-1.478;2022-12-07T01:33:53;2.67;;;1.23;;
23146;SDS011;11742;53.532;-1.478;2022-12-07T01:38:48;1.52;;;0.60;;
23146;SDS011;11742;53.532;-1.478;2022-12-07T01:41:19;4.00;;;1.75;;
23146;SDS011;11742;53.532;-1.478;2022-12-07T01:46:56;1.48;;;0.70;;
23146;SDS011;11742;53.532;-1.478;2022-12-07T01:49:36;1.95;;;0.88;;
23146;SDS011;11742;53.532;-1.478;2022-12-07T01:54:40;3.10;;;1.00;;
23146;SDS011;11742;53.532;-1.478;2022-12-07T01:57:09;2.20;;;0.60;;
23146;SDS011;11742;53.532;-1.478;2022-12-07T01:59:36;2.22;;;0.73;;
23146;SDS011;11742;53.532;-1.478;2022-12-07T02:02:04;3.90;;;1.05;;
23146;SDS011;11742;53.532;-1.478;2022-12-07T02:04:35;2.67;;;1.33;;
23146;SDS011;11742;53.532;-1.478;2022-12-07T02:07:01;2.20;;;0.80;;
23146;SDS011;11742;53.532;-1.478;2022-12-07T02:09:29;2.70;;;0.73;;
23146;SDS011;11742;53.532;-1.478;2022-12-07T02:11:55;3.47;;;0.60;;
23146;SDS011;11742;53.532;-1.478;2022-12-07T02:14:21;1.85;;;1.15;;
23146;SDS011;11742;53.532;-1.478;2022-12-07T02:16:51;2.25;;;0.68;;
23146;SDS011;11742;53.532;-1.478;2022-12-07T02:19:32;4.07;;;1.13;;
23146;SDS011;11742;53.532;-1.478;2022-12-07T02:24:54;1.20;;;0.60;;
23146;SDS011;11742;53.532;-1.478;2022-12-07T02:27:47;1.63;;;0.70;;
23146;SDS011;11742;53.532;-1.478;2022-12-07T02:30:22;3.83;;;0.80;;
23146;SDS011;11742;53.532;-1.478;2022-12-07T02:35:27;3.80;;;1.25;;
23146;SDS011;11742;53.532;-1.478;2022-12-07T02:37:59;1.75;;;0.70;;
23146;SDS011;11742;53.532;-1.478;2022-12-07T02:43:15;3.03;;;0.70;;
23146;SDS011;11742;53.532;-1.478;2022-12-07T02:45:47;3.95;;;0.65;;
23146;SDS011;11742;53.532;-1.478;2022-12-07T02:48:17;1.27;;;0.50;;
23146;SDS011;11742;53.532;-1.478;2022-12-07T02:50:50;2.03;;;0.80;;
23146;SDS011;11742;53.532;-1.478;2022-12-07T02:53:39;2.03;;;0.50;;
23146;SDS011;11742;53.532;-1.478;2022-12-07T03:04:44;2.15;;;0.90;;
23146;SDS011;11742;53.532;-1.478;2022-12-07T03:13:12;0.75;;;0.60;;
23146;SDS011;11742;53.532;-1.478;2022-12-07T03:18:52;0.93;;;0.40;;
23146;SDS011;11742;53.532;-1.478;2022-12-07T03:21:43;5.45;;;1.27;;
23146;SDS011;11742;53.532;-1.478;2022-12-07T03:24:13;2.88;;;0.50;;
23146;SDS011;11742;53.532;-1.478;2022-12-07T03:26:44;0.95;;;0.55;;
23146;SDS011;11742;53.532;-1.478;2022-12-07T03:29:21;1.90;;;0.70;;
23146;SDS011;11742;53.532;-1.478;2022-12-07T03:31:55;2.03;;;0.60;;
23146;SDS011;11742;53.532;-1.478;2022-12-07T03:34:34;1.05;;;0.50;;
23146;SDS011;11742;53.532;-1.478;2022-12-07T03:37:15;0.68;;;0.63;;
23146;SDS011;11742;53.532;-1.478;2022-12-07T03:42:32;0.77;;;0.38;;
23146;SDS011;11742;53.532;-1.478;2022-12-07T03:44:59;1.38;;;0.70;;
23146;SDS011;11742;53.532;-1.478;2022-12-07T03:50:10;1.08;;;0.50;;
23146;SDS011;11742;53.532;-1.478;2022-12-07T03:52:54;2.08;;;0.50;;
23146;SDS011;11742;53.532;-1.478;2022-12-07T03:55:44;1.52;;;0.55;;
23146;SDS011;11742;53.532;-1.478;2022-12-07T03:58:13;2.75;;;0.75;;
23146;SDS011;11742;53.532;-1.478;2022-12-07T04:00:47;1.90;;;0.70;;
23146;SDS011;11742;53.532;-1.478;2022-12-07T04:03:15;2.45;;;1.17;;
23146;SDS011;11742;53.532;-1.478;2022-12-07T04:05:41;0.93;;;0.57;;
23146;SDS011;11742;53.532;-1.478;2022-12-07T04:08:08;0.65;;;0.40;;
23146;SDS011;11742;53.532;-1.478;2022-12-07T04:10:34;0.40;;;0.40;;
23146;SDS011;11742;53.532;-1.478;2022-12-07T04:13:00;1.85;;;0.60;;
23146;SDS011;11742;53.532;-1.478;2022-12-07T04:15:26;1.15;;;0.50;;
23146;SDS011;11742;53.532;-1.478;2022-12-07T04:17:54;2.10;;;0.40;;
23146;SDS011;11742;53.532;-1.478;2022-12-07T04:20:23;1.52;;;0.32;;
23146;SDS011;11742;53.532;-1.478;2022-12-07T04:22:57;1.58;;;0.73;;
23146;SDS011;11742;53.532;-1.478;2022-12-07T04:25:37;1.50;;;0.82;;
23146;SDS011;11742;53.532;-1.478;2022-12-07T04:28:03;0.55;;;0.40;;
23146;SDS011;11742;53.532;-1.478;2022-12-07T04:30:29;1.08;;;0.60;;
23146;SDS011;11742;53.532;-1.478;2022-12-07T04:32:55;1.13;;;0.50;;
23146;SDS011;11742;53.532;-1.478;2022-12-07T04:35:20;0.98;;;0.50;;
23146;SDS011;11742;53.532;-1.478;2022-12-07T04:37:46;3.22;;;0.52;;
23146;SDS011;11742;53.532;-1.478;2022-12-07T04:40:15;1.90;;;0.50;;
23146;SDS011;11742;53.532;-1.478;2022-12-07T04:42:41;1.02;;;0.60;;
23146;SDS011;11742;53.532;-1.478;2022-12-07T04:45:06;1.35;;;0.60;;
23146;SDS011;11742;53.532;-1.478;2022-12-07T04:47:33;0.38;;;0.35;;
23146;SDS011;11742;53.532;-1.478;2022-12-07T04:50:01;0.55;;;0.47;;
23146;SDS011;11742;53.532;-1.478;2022-12-07T04:52:27;1.25;;;0.60;;
23146;SDS011;11742;53.532;-1.478;2022-12-07T04:54:59;2.35;;;0.55;;
23146;SDS011;11742;53.532;-1.478;2022-12-07T04:57:27;1.52;;;0.50;;
23146;SDS011;11742;53.532;-1.478;2022-12-07T04:59:59;1.08;;;0.70;;
23146;SDS011;11742;53.532;-1.478;2022-12-07T05:02:31;1.58;;;0.63;;
23146;SDS011;11742;53.532;-1.478;2022-12-07T05:04:57;1.92;;;0.63;;
23146;SDS011;11742;53.532;-1.478;2022-12-07T05:07:24;0.93;;;0.70;;
23146;SDS011;11742;53.532;-1.478;2022-12-07T05:09:50;1.13;;;0.70;;
23146;SDS011;11742;53.532;-1.478;2022-12-07T05:12:28;2.58;;;0.82;;
23146;SDS011;11742;53.532;-1.478;2022-12-07T05:14:56;3.15;;;0.75;;
23146;SDS011;11742;53.532;-1.478;2022-12-07T05:17:22;1.10;;;0.70;;
23146;SDS011;11742;53.532;-1.478;2022-12-07T05:19:50;1.27;;;0.57;;
23146;SDS011;11742;53.532;-1.478;2022-12-07T05:22:16;1.80;;;0.60;;
23146;SDS011;11742;53.532;-1.478;2022-12-07T05:24:42;1.33;;;0.60;;
23146;SDS011;11742;53.532;-1.478;2022-12-07T05:27:07;1.08;;;0.70;;
23146;SDS011;11742;53.532;-1.478;2022-12-07T05:29:36;1.05;;;0.40;;
23146;SDS011;11742;53.532;-1.478;2022-12-07T05:32:01;1.52;;;0.70;;
23146;SDS011;11742;53.532;-1.478;2022-12-07T05:34:27;1.63;;;0.60;;
23146;SDS011;11742;53.532;-1.478;2022-12-07T05:36:53;2.65;;;0.70;;
23146;SDS011;11742;53.532;-1.478;2022-12-07T05:39:21;1.33;;;0.70;;
23146;SDS011;11742;53.532;-1.478;2022-12-07T05:41:48;1.58;;;0.70;;
23146;SDS011;11742;53.532;-1.478;2022-12-07T05:44:32;0.65;;;0.55;;
23146;SDS011;11742;53.532;-1.478;2022-12-07T05:46:57;1.38;;;0.63;;
23146;SDS011;11742;53.532;-1.478;2022-12-07T05:49:23;3.00;;;0.65;;
23146;SDS011;11742;53.532;-1.478;2022-12-07T05:51:49;3.22;;;0.70;;
23146;SDS011;11742;53.532;-1.478;2022-12-07T05:54:15;0.73;;;0.70;;
23146;SDS011;11742;53.532;-1.478;2022-12-07T05:56:41;1.48;;;0.60;;
23146;SDS011;11742;53.532;-1.478;2022-12-07T05:59:07;1.58;;;0.80;;
23146;SDS011;11742;53.532;-1.478;2022-12-07T06:01:53;0.98;;;0.63;;
23146;SDS011;11742;53.532;-1.478;2022-12-07T06:04:24;1.75;;;0.70;;
23146;SDS011;11742;53.532;-1.478;2022-12-07T06:06:52;0.50;;;0.50;;
23146;SDS011;11742;53.532;-1.478;2022-12-07T06:09:18;0.73;;;0.60;;
23146;SDS011;11742;53.532;-1.478;2022-12-07T06:11:45;1.98;;;0.80;;
23146;SDS011;11742;53.532;-1.478;2022-12-07T06:14:30;0.80;;;0.60;;
23146;SDS011;11742;53.532;-1.478;2022-12-07T06:16:58;1.17;;;0.68;;
23146;SDS011;11742;53.532;-1.478;2022-12-07T06:19:24;3.25;;;0.77;;
23146;SDS011;11742;53.532;-1.478;2022-12-07T06:21:56;1.73;;;0.70;;
23146;SDS011;11742;53.532;-1.478;2022-12-07T06:24:21;2.53;;;0.85;;
23146;SDS011;11742;53.532;-1.478;2022-12-07T06:26:47;1.33;;;0.70;;
23146;SDS011;11742;53.532;-1.478;2022-12-07T06:29:14;0.73;;;0.50;;
23146;SDS011;11742;53.532;-1.478;2022-12-07T06:31:41;1.30;;;0.80;;
23146;SDS011;11742;53.532;-1.478;2022-12-07T06:34:11;1.50;;;0.63;;
23146;SDS011;11742;53.532;-1.478;2022-12-07T06:36:38;1.25;;;0.70;;
23146;SDS011;11742;53.532;-1.478;2022-12-07T06:39:05;1.50;;;0.73;;
23146;SDS011;11742;53.532;-1.478;2022-12-07T06:41:39;1.35;;;0.90;;
23146;SDS011;11742;53.532;-1.478;2022-12-07T06:44:05;0.70;;;0.70;;
23146;SDS011;11742;53.532;-1.478;2022-12-07T06:46:32;1.33;;;0.63;;
23146;SDS011;11742;53.532;-1.478;2022-12-07T06:48:58;1.95;;;0.70;;
23146;SDS011;11742;53.532;-1.478;2022-12-07T06:51:24;1.77;;;0.88;;
23146;SDS011;11742;53.532;-1.478;2022-12-07T06:53:50;2.25;;;0.50;;
23146;SDS011;11742;53.532;-1.478;2022-12-07T06:56:16;2.45;;;0.88;;
23146;SDS011;11742;53.532;-1.478;2022-12-07T06:58:48;1.02;;;0.57;;
23146;SDS011;11742;53.532;-1.478;2022-12-07T07:01:17;1.17;;;0.63;;
23146;SDS011;11742;53.532;-1.478;2022-12-07T07:03:46;1.05;;;0.60;;
23146;SDS011;11742;53.532;-1.478;2022-12-07T07:06:29;1.10;;;0.60;;
23146;SDS011;11742;53.532;-1.478;2022-12-07T07:09:01;2.05;;;0.85;;
23146;SDS011;11742;53.532;-1.478;2022-12-07T07:11:30;1.23;;;0.70;;
23146;SDS011;11742;53.532;-1.478;2022-12-07T07:13:56;0.65;;;0.52;;
23146;SDS011;11742;53.532;-1.478;2022-12-07T07:16:24;1.20;;;0.68;;
23146;SDS011;11742;53.532;-1.478;2022-12-07T07:18:50;1.35;;;0.60;;
23146;SDS011;11742;53.532;-1.478;2022-12-07T07:21:16;1.50;;;0.70;;
23146;SDS011;11742;53.532;-1.478;2022-12-07T07:23:42;1.30;;;0.50;;
23146;SDS011;11742;53.532;-1.478;2022-12-07T07:26:08;1.33;;;0.63;;
23146;SDS011;11742;53.532;-1.478;2022-12-07T07:28:33;2.33;;;0.73;;
23146;SDS011;11742;53.532;-1.478;2022-12-07T07:31:03;1.65;;;0.52;;
23146;SDS011;11742;53.532;-1.478;2022-12-07T07:33:28;3.25;;;0.55;;
23146;SDS011;11742;53.532;-1.478;2022-12-07T07:35:54;1.30;;;0.70;;
23146;SDS011;11742;53.532;-1.478;2022-12-07T07:38:20;1.42;;;0.60;;
23146;SDS011;11742;53.532;-1.478;2022-12-07T07:40:46;1.45;;;0.60;;
23146;SDS011;11742;53.532;-1.478;2022-12-07T07:43:12;1.20;;;0.63;;
23146;SDS011;11742;53.532;-1.478;2022-12-07T07:45:46;1.45;;;0.70;;
23146;SDS011;11742;53.532;-1.478;2022-12-07T07:48:12;0.95;;;0.70;;
23146;SDS011;11742;53.532;-1.478;2022-12-07T07:50:44;2.80;;;0.80;;
23146;SDS011;11742;53.532;-1.478;2022-12-07T07:53:09;3.47;;;0.70;;
23146;SDS011;11742;53.532;-1.478;2022-12-07T07:55:35;1.88;;;0.60;;
23146;SDS011;11742;53.532;-1.478;2022-12-07T07:58:01;1.38;;;0.50;;
23146;SDS011;11742;53.532;-1.478;2022-12-07T08:00:29;1.40;;;0.50;;
23146;SDS011;11742;53.532;-1.478;2022-12-07T08:03:00;1.75;;;0.70;;
23146;SDS011;11742;53.532;-1.478;2022-12-07T08:05:28;1.90;;;0.60;;
23146;SDS011;11742;53.532;-1.478;2022-12-07T08:08:03;2.35;;;0.70;;
23146;SDS011;11742;53.532;-1.478;2022-12-07T08:10:32;3.15;;;0.70;;
23146;SDS011;11742;53.532;-1.478;2022-12-07T08:12:59;1.77;;;0.70;;
23146;SDS011;11742;53.532;-1.478;2022-12-07T08:15:38;1.42;;;0.50;;
23146;SDS011;11742;53.532;-1.478;2022-12-07T08:18:06;1.35;;;0.68;;
23146;SDS011;11742;53.532;-1.478;2022-12-07T08:20:33;2.08;;;0.50;;
23146;SDS011;11742;53.532;-1.478;2022-12-07T08:23:00;1.95;;;0.63;;
23146;SDS011;11742;53.532;-1.478;2022-12-07T08:25:26;3.08;;;1.00;;
23146;SDS011;11742;53.532;-1.478;2022-12-07T08:27:55;1.35;;;0.60;;
23146;SDS011;11742;53.532;-1.478;2022-12-07T08:30:36;1.33;;;0.57;;
23146;SDS011;11742;53.532;-1.478;2022-12-07T08:33:02;1.95;;;0.70;;
23146;SDS011;11742;53.532;-1.478;2022-12-07T08:35:28;1.85;;;0.70;;
23146;SDS011;11742;53.532;-1.478;2022-12-07T08:37:54;0.82;;;0.47;;
23146;SDS011;11742;53.532;-1.478;2022-12-07T08:40:19;1.27;;;0.70;;
23146;SDS011;11742;53.532;-1.478;2022-12-07T08:42:49;1.38;;;0.50;;
23146;SDS011;11742;53.532;-1.478;2022-12-07T08:45:16;2.42;;;0.60;;
23146;SDS011;11742;53.532;-1.478;2022-12-07T08:50:36;0.85;;;0.50;;
23146;SDS011;11742;53.532;-1.478;2022-12-07T08:53:06;1.60;;;0.73;;
23146;SDS011;11742;53.532;-1.478;2022-12-07T08:55:32;1.38;;;0.60;;
23146;SDS011;11742;53.532;-1.478;2022-12-07T08:57:59;1.85;;;0.90;;
23146;SDS011;11742;53.532;-1.478;2022-12-07T09:00:29;1.42;;;0.60;;
23146;SDS011;11742;53.532;-1.478;2022-12-07T09:02:54;2.90;;;0.73;;
23146;SDS011;11742;53.532;-1.478;2022-12-07T09:05:20;2.50;;;0.75;;
23146;SDS011;11742;53.532;-1.478;2022-12-07T09:07:57;2.38;;;0.68;;
23146;SDS011;11742;53.532;-1.478;2022-12-07T09:10:26;1.05;;;0.50;;
23146;SDS011;11742;53.532;-1.478;2022-12-07T09:13:25;1.40;;;0.50;;
23146;SDS011;11742;53.532;-1.478;2022-12-07T09:15:57;0.40;;;0.40;;
23146;SDS011;11742;53.532;-1.478;2022-12-07T09:18:23;4.03;;;1.23;;
23146;SDS011;11742;53.532;-1.478;2022-12-07T09:20:53;1.05;;;0.57;;
23146;SDS011;11742;53.532;-1.478;2022-12-07T09:23:20;1.15;;;0.57;;
23146;SDS011;11742;53.532;-1.478;2022-12-07T09:26:01;0.93;;;0.63;;
23146;SDS011;11742;53.532;-1.478;2022-12-07T09:28:31;0.70;;;0.50;;
23146;SDS011;11742;53.532;-1.478;2022-12-07T09:31:15;1.23;;;0.57;;
23146;SDS011;11742;53.532;-1.478;2022-12-07T09:37:11;0.57;;;0.55;;
23146;SDS011;11742;53.532;-1.478;2022-12-07T09:39:51;1.25;;;0.60;;
23146;SDS011;11742;53.532;-1.478;2022-12-07T09:45:14;0.85;;;0.60;;
23146;SDS011;11742;53.532;-1.478;2022-12-07T09:47:43;0.38;;;0.35;;
23146;SDS011;11742;53.532;-1.478;2022-12-07T09:50:14;1.70;;;0.70;;
23146;SDS011;11742;53.532;-1.478;2022-12-07T09:52:47;1.55;;;0.77;;
23146;SDS011;11742;53.532;-1.478;2022-12-07T09:55:15;1.33;;;0.50;;
23146;SDS011;11742;53.532;-1.478;2022-12-07T09:57:46;2.33;;;0.85;;
23146;SDS011;11742;53.532;-1.478;2022-12-07T10:00:16;2.58;;;0.80;;
23146;SDS011;11742;53.532;-1.478;2022-12-07T10:02:47;1.60;;;0.55;;
23146;SDS011;11742;53.532;-1.478;2022-12-07T10:08:14;1.58;;;0.63;;
23146;SDS011;11742;53.532;-1.478;2022-12-07T10:10:48;2.00;;;0.80;;
23146;SDS011;11742;53.532;-1.478;2022-12-07T10:13:21;2.33;;;0.70;;
23146;SDS011;11742;53.532;-1.478;2022-12-07T10:16:01;2.22;;;0.70;;
23146;SDS011;11742;53.532;-1.478;2022-12-07T10:18:32;3.40;;;0.73;;
23146;SDS011;11742;53.532;-1.478;2022-12-07T10:21:25;0.93;;;0.70;;
23146;SDS011;11742;53.532;-1.478;2022-12-07T10:26:52;1.00;;;0.70;;
23146;SDS011;11742;53.532;-1.478;2022-12-07T10:29:21;1.67;;;0.80;;
23146;SDS011;11742;53.532;-1.478;2022-12-07T10:31:59;0.50;;;0.50;;
23146;SDS011;11742;53.532;-1.478;2022-12-07T10:34:43;1.77;;;0.85;;
23146;SDS011;11742;53.532;-1.478;2022-12-07T10:37:15;1.67;;;0.60;;
23146;SDS011;11742;53.532;-1.478;2022-12-07T10:39:50;1.52;;;0.80;;
23146;SDS011;11742;53.532;-1.478;2022-12-07T10:42:45;1.08;;;0.75;;
23146;SDS011;11742;53.532;-1.478;2022-12-07T10:45:24;1.20;;;0.60;;
23146;SDS011;11742;53.532;-1.478;2022-12-07T10:48:26;2.33;;;0.70;;
23146;SDS011;11742;53.532;-1.478;2022-12-07T10:51:29;1.03;;;0.80;;
23146;SDS011;11742;53.532;-1.478;2022-12-07T10:54:51;1.45;;;0.75;;
23146;SDS011;11742;53.532;-1.478;2022-12-07T10:57:50;1.02;;;0.70;;
23146;SDS011;11742;53.532;-1.478;2022-12-07T11:01:02;1.73;;;0.77;;
23146;SDS011;11742;53.532;-1.478;2022-12-07T11:06:30;0.98;;;0.70;;
23146;SDS011;11742;53.532;-1.478;2022-12-07T11:14:48;1.75;;;0.80;;
23146;SDS011;11742;53.532;-1.478;2022-12-07T11:23:25;1.42;;;1.00;;
23146;SDS011;11742;53.532;-1.478;2022-12-07T11:37:59;1.95;;;0.60;;
23146;SDS011;11742;53.532;-1.478;2022-12-07T11:40:36;2.22;;;0.73;;
23146;SDS011;11742;53.532;-1.478;2022-12-07T11:43:27;2.20;;;0.82;;
23146;SDS011;11742;53.532;-1.478;2022-12-07T11:46:18;2.95;;;0.90;;
23146;SDS011;11742;53.532;-1.478;2022-12-07T11:48:52;3.38;;;0.88;;
23146;SDS011;11742;53.532;-1.478;2022-12-07T11:51:20;1.58;;;0.50;;
23146;SDS011;11742;53.532;-1.478;2022-12-07T11:53:58;1.95;;;0.60;;
23146;SDS011;11742;53.532;-1.478;2022-12-07T11:56:28;2.38;;;0.70;;
23146;SDS011;11742;53.532;-1.478;2022-12-07T12:01:47;1.00;;;0.75;;
23146;SDS011;11742;53.532;-1.478;2022-12-07T12:07:10;2.45;;;0.65;;
23146;SDS011;11742;53.532;-1.478;2022-12-07T12:09:45;1.48;;;0.60;;
23146;SDS011;11742;53.532;-1.478;2022-12-07T12:15:28;3.75;;;0.88;;
23146;SDS011;11742;53.532;-1.478;2022-12-07T12:21:01;2.40;;;0.95;;
23146;SDS011;11742;53.532;-1.478;2022-12-07T12:23:56;0.95;;;0.63;;
23146;SDS011;11742;53.532;-1.478;2022-12-07T12:29:43;1.30;;;0.80;;
23146;SDS011;11742;53.532;-1.478;2022-12-07T12:36:17;0.90;;;0.60;;
23146;SDS011;11742;53.532;-1.478;2022-12-07T12:46:58;4.13;;;0.90;;
23146;SDS011;11742;53.532;-1.478;2022-12-07T12:51:54;1.65;;;0.88;;
23146;SDS011;11742;53.532;-1.478;2022-12-07T12:54:32;1.13;;;0.65;;
23146;SDS011;11742;53.532;-1.478;2022-12-07T12:59:57;1.45;;;0.60;;
23146;SDS011;11742;53.532;-1.478;2022-12-07T13:03:05;4.53;;;1.13;;
23146;SDS011;11742;53.532;-1.478;2022-12-07T13:06:00;2.50;;;0.60;;
23146;SDS011;11742;53.532;-1.478;2022-12-07T13:08:56;3.72;;;0.90;;
23146;SDS011;11742;53.532;-1.478;2022-12-07T13:11:41;3.00;;;0.85;;
23146;SDS011;11742;53.532;-1.478;2022-12-07T13:19:57;1.33;;;0.80;;
23146;SDS011;11742;53.532;-1.478;2022-12-07T13:27:47;2.45;;;0.90;;
23146;SDS011;11742;53.532;-1.478;2022-12-07T13:30:38;1.50;;;0.80;;
23146;SDS011;11742;53.532;-1.478;2022-12-07T13:33:28;2.17;;;0.93;;
23146;SDS011;11742;53.532;-1.478;2022-12-07T13:35:57;1.17;;;0.80;;
23146;SDS011;11742;53.532;-1.478;2022-12-07T13:38:31;1.85;;;0.90;;
23146;SDS011;11742;53.532;-1.478;2022-12-07T13:43:49;2.50;;;1.58;;
23146;SDS011;11742;53.532;-1.478;2022-12-07T13:49:50;2.92;;;1.10;;
23146;SDS011;11742;53.532;-1.478;2022-12-07T13:52:19;1.90;;;0.95;;
23146;SDS011;11742;53.532;-1.478;2022-12-07T13:54:54;2.20;;;0.80;;
23146;SDS011;11742;53.532;-1.478;2022-12-07T13:58:04;0.98;;;0.70;;
23146;SDS011;11742;53.532;-1.478;2022-12-07T14:00:30;1.73;;;0.85;;
23146;SDS011;11742;53.532;-1.478;2022-12-07T14:03:25;1.77;;;0.75;;
23146;SDS011;11742;53.532;-1.478;2022-12-07T14:06:33;1.40;;;0.98;;
23146;SDS011;11742;53.532;-1.478;2022-12-07T14:09:06;2.05;;;0.80;;
23146;SDS011;11742;53.532;-1.478;2022-12-07T14:11:41;2.10;;;1.00;;
23146;SDS011;11742;53.532;-1.478;2022-12-07T14:14:23;1.92;;;0.93;;
23146;SDS011;11742;53.532;-1.478;2022-12-07T14:16:56;2.00;;;0.85;;
23146;SDS011;11742;53.532;-1.478;2022-12-07T14:22:57;1.58;;;0.75;;
23146;SDS011;11742;53.532;-1.478;2022-12-07T14:27:48;2.58;;;0.80;;
23146;SDS011;11742;53.532;-1.478;2022-12-07T14:30:15;2.90;;;1.00;;
23146;SDS011;11742;53.532;-1.478;2022-12-07T14:32:51;0.88;;;0.52;;
23146;SDS011;11742;53.532;-1.478;2022-12-07T14:35:31;1.60;;;0.90;;
23146;SDS011;11742;53.532;-1.478;2022-12-07T14:37:58;3.42;;;1.00;;
23146;SDS011;11742;53.532;-1.478;2022-12-07T14:40:33;2.25;;;0.88;;
23146;SDS011;11742;53.532;-1.478;2022-12-07T14:43:04;2.05;;;0.80;;
23146;SDS011;11742;53.532;-1.478;2022-12-07T14:45:37;2.25;;;0.70;;
23146;SDS011;11742;53.532;-1.478;2022-12-07T14:48:17;2.20;;;1.00;;
23146;SDS011;11742;53.532;-1.478;2022-12-07T14:50:51;2.42;;;0.70;;
23146;SDS011;11742;53.532;-1.478;2022-12-07T14:53:25;4.35;;;0.90;;
23146;SDS011;11742;53.532;-1.478;2022-12-07T14:55:56;1.58;;;0.88;;
23146;SDS011;11742;53.532;-1.478;2022-12-07T14:58:32;2.78;;;0.93;;
23146;SDS011;11742;53.532;-1.478;2022-12-07T15:00:59;2.05;;;0.80;;
23146;SDS011;11742;53.532;-1.478;2022-12-07T15:03:25;1.35;;;0.85;;
23146;SDS011;11742;53.532;-1.478;2022-12-07T15:05:52;1.98;;;0.88;;
23146;SDS011;11742;53.532;-1.478;2022-12-07T15:08:21;1.48;;;1.00;;
23146;SDS011;11742;53.532;-1.478;2022-12-07T15:10:53;1.60;;;0.70;;
23146;SDS011;11742;53.532;-1.478;2022-12-07T15:13:19;1.65;;;0.95;;
23146;SDS011;11742;53.532;-1.478;2022-12-07T15:16:13;1.33;;;0.95;;
23146;SDS011;11742;53.532;-1.478;2022-12-07T15:18:41;2.85;;;1.20;;
23146;SDS011;11742;53.532;-1.478;2022-12-07T15:21:10;1.33;;;0.98;;
23146;SDS011;11742;53.532;-1.478;2022-12-07T15:23:39;2.80;;;1.27;;
23146;SDS011;11742;53.532;-1.478;2022-12-07T15:26:09;1.35;;;0.85;;
23146;SDS011;11742;53.532;-1.478;2022-12-07T15:28:35;6.57;;;1.30;;
23146;SDS011;11742;53.532;-1.478;2022-12-07T15:31:13;4.70;;;1.23;;
23146;SDS011;11742;53.532;-1.478;2022-12-07T15:33:40;1.63;;;0.90;;
23146;SDS011;11742;53.532;-1.478;2022-12-07T15:36:09;3.25;;;1.10;;
23146;SDS011;11742;53.532;-1.478;2022-12-07T15:38:46;2.42;;;1.02;;
23146;SDS011;11742;53.532;-1.478;2022-12-07T15:41:12;1.83;;;1.20;;
23146;SDS011;11742;53.532;-1.478;2022-12-07T15:43:38;3.38;;;1.27;;
23146;SDS011;11742;53.532;-1.478;2022-12-07T15:47:15;2.83;;;1.13;;
23146;SDS011;11742;53.532;-1.478;2022-12-07T15:49:30;2.63;;;1.55;;
23146;SDS011;11742;53.532;-1.478;2022-12-07T15:52:02;2.72;;;1.30;;
23146;SDS011;11742;53.532;-1.478;2022-12-07T15:54:28;2.88;;;1.30;;
23146;SDS011;11742;53.532;-1.478;2022-12-07T15:57:01;6.03;;;1.63;;
23146;SDS011;11742;53.532;-1.478;2022-12-07T15:59:29;3.38;;;1.48;;
23146;SDS011;11742;53.532;-1.478;2022-12-07T16:01:55;2.92;;;1.50;;
23146;SDS011;11742;53.532;-1.478;2022-12-07T16:04:26;3.65;;;1.90;;
23146;SDS011;11742;53.532;-1.478;2022-12-07T16:06:57;2.53;;;1.67;;
23146;SDS011;11742;53.532;-1.478;2022-12-07T16:09:36;4.85;;;1.80;;
23146;SDS011;11742;53.532;-1.478;2022-12-07T16:12:18;3.63;;;2.22;;
23146;SDS011;11742;53.532;-1.478;2022-12-07T16:14:47;3.92;;;2.05;;
23146;SDS011;11742;53.532;-1.478;2022-12-07T16:17:15;2.50;;;1.60;;
23146;SDS011;11742;53.532;-1.478;2022-12-07T16:19:46;5.75;;;1.83;;
23146;SDS011;11742;53.532;-1.478;2022-12-07T16:22:15;2.58;;;1.90;;
23146;SDS011;11742;53.532;-1.478;2022-12-07T16:24:41;2.85;;;1.70;;
23146;SDS011;11742;53.532;-1.478;2022-12-07T16:27:25;3.67;;;1.75;;
23146;SDS011;11742;53.532;-1.478;2022-12-07T16:30:00;2.92;;;1.80;;
23146;SDS011;11742;53.532;-1.478;2022-12-07T16:32:32;2.75;;;1.80;;
23146;SDS011;11742;53.532;-1.478;2022-12-07T16:34:58;4.93;;;2.00;;
23146;SDS011;11742;53.532;-1.478;2022-12-07T16:37:26;5.40;;;2.38;;
23146;SDS011;11742;53.532;-1.478;2022-12-07T16:39:54;3.75;;;2.35;;
23146;SDS011;11742;53.532;-1.478;2022-12-07T16:42:20;4.55;;;2.22;;
23146;SDS011;11742;53.532;-1.478;2022-12-07T16:44:52;4.25;;;1.80;;
23146;SDS011;11742;53.532;-1.478;2022-12-07T16:47:17;5.22;;;2.25;;
23146;SDS011;11742;53.532;-1.478;2022-12-07T16:49:52;5.07;;;1.88;;
23146;SDS011;11742;53.532;-1.478;2022-12-07T16:52:47;3.40;;;1.95;;
23146;SDS011;11742;53.532;-1.478;2022-12-07T16:55:15;5.20;;;2.55;;
23146;SDS011;11742;53.532;-1.478;2022-12-07T16:57:41;8.70;;;3.10;;
23146;SDS011;11742;53.532;-1.478;2022-12-07T17:00:07;4.15;;;2.20;;
23146;SDS011;11742;53.532;-1.478;2022-12-07T17:02:39;6.75;;;2.50;;
23146;SDS011;11742;53.532;-1.478;2022-12-07T17:05:07;5.50;;;2.85;;
23146;SDS011;11742;53.532;-1.478;2022-12-07T17:07:33;3.70;;;2.15;;
23146;SDS011;11742;53.532;-1.478;2022-12-07T17:10:09;4.03;;;2.40;;
23146;SDS011;11742;53.532;-1.478;2022-12-07T17:12:42;5.22;;;2.75;;
23146;SDS011;11742;53.532;-1.478;2022-12-07T17:15:16;4.97;;;2.65;;
23146;SDS011;11742;53.532;-1.478;2022-12-07T17:17:56;3.38;;;2.10;;
23146;SDS011;11742;53.532;-1.478;2022-12-07T17:20:26;4.10;;;2.28;;